sensor_id;sensor_type;location;lat;lon;timestamp;P1;durP1;ratioP1;P2;durP2;ratioP2
21833;SDS011;11079;51.092;3.458;2023-08-12T00:12:11;11.23;;;6.22;;
21833;SDS011;11079;51.092;3.458;2023-08-12T00:15:13;13.60;;;6.80;;
21833;SDS011;11079;51.092;3.458;2023-08-12T00:17:45;13.40;;;6.25;;
21833;SDS011;11079;51.092;3.458;2023-08-12T00:21:02;13.13;;;6.85;;
21833;SDS011;11079;51.092;3.458;2023-08-12T00:24:11;11.27;;;5.97;;
21833;SDS011;11079;51.092;3.458;2023-08-12T00:26:53;13.68;;;6.00;;
21833;SDS011;11079;51.092;3.458;2023-08-12T00:33:31;14.68;;;5.85;;
21833;SDS011;11079;51.092;3.458;2023-08-12T00:46:21;10.52;;;6.25;;
21833;SDS011;11079;51.092;3.458;2023-08-12T00:58:11;11.70;;;6.28;;
21833;SDS011;11079;51.092;3.458;2023-08-12T01:04:11;7.97;;;5.38;;
21833;SDS011;11079;51.092;3.458;2023-08-12T01:07:07;12.75;;;6.03;;
21833;SDS011;11079;51.092;3.458;2023-08-12T01:09:57;12.63;;;5.82;;
21833;SDS011;11079;51.092;3.458;2023-08-12T01:13:28;10.10;;;5.18;;
21833;SDS011;11079;51.092;3.458;2023-08-12T01:15:58;8.05;;;5.00;;
21833;SDS011;11079;51.092;3.458;2023-08-12T01:22:08;9.20;;;4.35;;
21833;SDS011;11079;51.092;3.458;2023-08-12T01:24:45;7.32;;;3.58;;
21833;SDS011;11079;51.092;3.458;2023-08-12T01:27:27;8.70;;;3.22;;
21833;SDS011;11079;51.092;3.458;2023-08-12T01:46:48;8.32;;;4.03;;
21833;SDS011;11079;51.092;3.458;2023-08-12T01:52:37;5.47;;;3.45;;
21833;SDS011;11079;51.092;3.458;2023-08-12T01:55:19;6.88;;;3.63;;
21833;SDS011;11079;51.092;3.458;2023-08-12T01:58:10;5.38;;;3.50;;
21833;SDS011;11079;51.092;3.458;2023-08-12T02:00:42;8.05;;;3.97;;
21833;SDS011;11079;51.092;3.458;2023-08-12T02:03:18;9.30;;;4.53;;
21833;SDS011;11079;51.092;3.458;2023-08-12T02:05:51;10.10;;;4.10;;
21833;SDS011;11079;51.092;3.458;2023-08-12T02:08:26;8.40;;;4.00;;
21833;SDS011;11079;51.092;3.458;2023-08-12T02:14:07;7.22;;;4.13;;
21833;SDS011;11079;51.092;3.458;2023-08-12T02:16:44;8.70;;;4.60;;
21833;SDS011;11079;51.092;3.458;2023-08-12T02:22:35;11.35;;;5.07;;
21833;SDS011;11079;51.092;3.458;2023-08-12T02:25:09;11.82;;;5.28;;
21833;SDS011;11079;51.092;3.458;2023-08-12T02:27:41;10.10;;;5.60;;
21833;SDS011;11079;51.092;3.458;2023-08-12T02:30:09;9.85;;;6.45;;
21833;SDS011;11079;51.092;3.458;2023-08-12T02:32:39;11.82;;;6.45;;
21833;SDS011;11079;51.092;3.458;2023-08-12T02:35:15;12.25;;;6.70;;
21833;SDS011;11079;51.092;3.458;2023-08-12T02:37:43;13.20;;;7.43;;
21833;SDS011;11079;51.092;3.458;2023-08-12T02:40:29;13.65;;;7.00;;
21833;SDS011;11079;51.092;3.458;2023-08-12T02:43:08;11.65;;;6.47;;
21833;SDS011;11079;51.092;3.458;2023-08-12T02:45:37;13.50;;;6.78;;
21833;SDS011;11079;51.092;3.458;2023-08-12T02:48:06;11.52;;;6.55;;
21833;SDS011;11079;51.092;3.458;2023-08-12T02:50:36;10.75;;;6.50;;
21833;SDS011;11079;51.092;3.458;2023-08-12T02:53:05;11.82;;;6.22;;
21833;SDS011;11079;51.092;3.458;2023-08-12T03:02:26;13.52;;;6.03;;
21833;SDS011;11079;51.092;3.458;2023-08-12T03:04:57;12.13;;;6.13;;
21833;SDS011;11079;51.092;3.458;2023-08-12T03:07:26;12.48;;;7.47;;
21833;SDS011;11079;51.092;3.458;2023-08-12T03:14:02;12.40;;;7.05;;
21833;SDS011;11079;51.092;3.458;2023-08-12T03:16:53;13.45;;;6.90;;
21833;SDS011;11079;51.092;3.458;2023-08-12T03:19:32;14.40;;;7.88;;
21833;SDS011;11079;51.092;3.458;2023-08-12T03:22:05;14.02;;;8.23;;
21833;SDS011;11079;51.092;3.458;2023-08-12T03:28:16;13.15;;;8.32;;
21833;SDS011;11079;51.092;3.458;2023-08-12T03:31:02;13.23;;;8.88;;
21833;SDS011;11079;51.092;3.458;2023-08-12T03:37:08;17.50;;;10.07;;
21833;SDS011;11079;51.092;3.458;2023-08-12T03:39:54;15.95;;;10.45;;
21833;SDS011;11079;51.092;3.458;2023-08-12T03:42:55;16.42;;;10.85;;
21833;SDS011;11079;51.092;3.458;2023-08-12T03:48:53;16.92;;;10.38;;
21833;SDS011;11079;51.092;3.458;2023-08-12T03:51:22;16.90;;;10.18;;
21833;SDS011;11079;51.092;3.458;2023-08-12T03:53:59;14.95;;;10.30;;
21833;SDS011;11079;51.092;3.458;2023-08-12T03:56:36;13.63;;;9.63;;
21833;SDS011;11079;51.092;3.458;2023-08-12T03:59:13;11.85;;;9.32;;
21833;SDS011;11079;51.092;3.458;2023-08-12T04:01:39;10.82;;;8.77;;
21833;SDS011;11079;51.092;3.458;2023-08-12T04:04:12;12.27;;;8.38;;
21833;SDS011;11079;51.092;3.458;2023-08-12T04:06:42;12.93;;;8.52;;
21833;SDS011;11079;51.092;3.458;2023-08-12T04:09:16;9.68;;;8.10;;
21833;SDS011;11079;51.092;3.458;2023-08-12T04:11:47;10.55;;;8.60;;
21833;SDS011;11079;51.092;3.458;2023-08-12T04:14:14;12.52;;;8.45;;
21833;SDS011;11079;51.092;3.458;2023-08-12T04:16:58;13.77;;;8.70;;
21833;SDS011;11079;51.092;3.458;2023-08-12T04:19:46;11.02;;;8.07;;
21833;SDS011;11079;51.092;3.458;2023-08-12T04:22:20;10.40;;;8.32;;
21833;SDS011;11079;51.092;3.458;2023-08-12T04:24:53;13.30;;;8.05;;
21833;SDS011;11079;51.092;3.458;2023-08-12T04:27:33;12.77;;;8.02;;
21833;SDS011;11079;51.092;3.458;2023-08-12T04:33:31;6.00;;;4.45;;
21833;SDS011;11079;51.092;3.458;2023-08-12T04:36:03;6.13;;;4.55;;
21833;SDS011;11079;51.092;3.458;2023-08-12T04:38:39;7.93;;;5.65;;
21833;SDS011;11079;51.092;3.458;2023-08-12T04:44:51;7.15;;;5.45;;
21833;SDS011;11079;51.092;3.458;2023-08-12T04:50:59;6.32;;;4.07;;
21833;SDS011;11079;51.092;3.458;2023-08-12T04:53:47;6.28;;;4.50;;
21833;SDS011;11079;51.092;3.458;2023-08-12T04:56:21;4.63;;;3.95;;
21833;SDS011;11079;51.092;3.458;2023-08-12T04:59:13;4.38;;;3.33;;
21833;SDS011;11079;51.092;3.458;2023-08-12T05:08:25;6.32;;;3.83;;
21833;SDS011;11079;51.092;3.458;2023-08-12T05:10:57;5.70;;;2.80;;
21833;SDS011;11079;51.092;3.458;2023-08-12T05:13:26;5.22;;;2.67;;
21833;SDS011;11079;51.092;3.458;2023-08-12T05:16:02;4.70;;;2.60;;
21833;SDS011;11079;51.092;3.458;2023-08-12T05:18:59;4.50;;;2.70;;
21833;SDS011;11079;51.092;3.458;2023-08-12T05:21:50;4.05;;;2.60;;
21833;SDS011;11079;51.092;3.458;2023-08-12T05:24:22;4.85;;;3.03;;
21833;SDS011;11079;51.092;3.458;2023-08-12T05:27:08;6.50;;;2.50;;
21833;SDS011;11079;51.092;3.458;2023-08-12T05:29:54;7.47;;;3.10;;
21833;SDS011;11079;51.092;3.458;2023-08-12T05:36:03;5.88;;;2.22;;
21833;SDS011;11079;51.092;3.458;2023-08-12T05:39:01;9.13;;;2.75;;
21833;SDS011;11079;51.092;3.458;2023-08-12T05:41:29;9.32;;;2.88;;
21833;SDS011;11079;51.092;3.458;2023-08-12T05:44:14;5.38;;;2.83;;
21833;SDS011;11079;51.092;3.458;2023-08-12T05:46:50;8.52;;;3.60;;
21833;SDS011;11079;51.092;3.458;2023-08-12T05:49:26;9.98;;;4.03;;
21833;SDS011;11079;51.092;3.458;2023-08-12T05:51:54;5.78;;;2.88;;
21833;SDS011;11079;51.092;3.458;2023-08-12T05:54:46;4.97;;;2.47;;
21833;SDS011;11079;51.092;3.458;2023-08-12T05:57:37;6.70;;;2.28;;
21833;SDS011;11079;51.092;3.458;2023-08-12T06:00:10;7.40;;;1.95;;
21833;SDS011;11079;51.092;3.458;2023-08-12T06:03:12;6.78;;;2.17;;
21833;SDS011;11079;51.092;3.458;2023-08-12T06:05:44;3.53;;;1.65;;
21833;SDS011;11079;51.092;3.458;2023-08-12T06:08:32;8.50;;;2.47;;
21833;SDS011;11079;51.092;3.458;2023-08-12T06:11:16;6.65;;;2.42;;
21833;SDS011;11079;51.092;3.458;2023-08-12T06:13:56;9.68;;;2.63;;
21833;SDS011;11079;51.092;3.458;2023-08-12T06:32:53;5.53;;;2.55;;
21833;SDS011;11079;51.092;3.458;2023-08-12T06:36:12;5.38;;;2.35;;
21833;SDS011;11079;51.092;3.458;2023-08-12T07:56:46;5.22;;;1.88;;
21833;SDS011;11079;51.092;3.458;2023-08-12T07:59:59;4.35;;;2.25;;
21833;SDS011;11079;51.092;3.458;2023-08-12T08:41:26;6.68;;;2.53;;
21833;SDS011;11079;51.092;3.458;2023-08-12T08:47:34;7.55;;;2.75;;
21833;SDS011;11079;51.092;3.458;2023-08-12T08:50:49;5.32;;;2.30;;
21833;SDS011;11079;51.092;3.458;2023-08-12T08:53:37;5.90;;;2.28;;
21833;SDS011;11079;51.092;3.458;2023-08-12T08:56:07;6.85;;;2.67;;
21833;SDS011;11079;51.092;3.458;2023-08-12T08:58:37;5.20;;;2.70;;
21833;SDS011;11079;51.092;3.458;2023-08-12T09:01:06;6.72;;;2.83;;
21833;SDS011;11079;51.092;3.458;2023-08-12T09:03:33;9.05;;;2.67;;
21833;SDS011;11079;51.092;3.458;2023-08-12T09:06:04;4.35;;;2.05;;
21833;SDS011;11079;51.092;3.458;2023-08-12T09:08:31;4.90;;;1.98;;
21833;SDS011;11079;51.092;3.458;2023-08-12T09:11:21;5.07;;;2.08;;
21833;SDS011;11079;51.092;3.458;2023-08-12T09:13:47;6.47;;;2.28;;
21833;SDS011;11079;51.092;3.458;2023-08-12T09:16:15;4.68;;;2.05;;
21833;SDS011;11079;51.092;3.458;2023-08-12T09:18:44;5.13;;;1.67;;
21833;SDS011;11079;51.092;3.458;2023-08-12T09:21:14;5.20;;;1.92;;
21833;SDS011;11079;51.092;3.458;2023-08-12T09:23:53;6.85;;;2.25;;
21833;SDS011;11079;51.092;3.458;2023-08-12T09:26:20;4.72;;;1.40;;
21833;SDS011;11079;51.092;3.458;2023-08-12T09:28:48;6.18;;;2.30;;
21833;SDS011;11079;51.092;3.458;2023-08-12T09:31:23;4.85;;;1.70;;
21833;SDS011;11079;51.092;3.458;2023-08-12T09:34:00;5.15;;;1.40;;
21833;SDS011;11079;51.092;3.458;2023-08-12T09:36:30;3.38;;;1.50;;
21833;SDS011;11079;51.092;3.458;2023-08-12T09:39:07;3.55;;;1.48;;
21833;SDS011;11079;51.092;3.458;2023-08-12T09:41:37;5.25;;;1.35;;
21833;SDS011;11079;51.092;3.458;2023-08-12T09:47:52;9.48;;;2.38;;
21833;SDS011;11079;51.092;3.458;2023-08-12T09:50:30;5.32;;;1.67;;
21833;SDS011;11079;51.092;3.458;2023-08-12T09:58:51;5.78;;;1.85;;
21833;SDS011;11079;51.092;3.458;2023-08-12T10:01:21;4.75;;;1.83;;
21833;SDS011;11079;51.092;3.458;2023-08-12T10:04:09;5.75;;;1.63;;
21833;SDS011;11079;51.092;3.458;2023-08-12T10:09:24;4.88;;;1.50;;
21833;SDS011;11079;51.092;3.458;2023-08-12T10:12:07;3.28;;;1.67;;
21833;SDS011;11079;51.092;3.458;2023-08-12T10:14:36;7.65;;;2.00;;
21833;SDS011;11079;51.092;3.458;2023-08-12T10:17:07;4.97;;;1.70;;
21833;SDS011;11079;51.092;3.458;2023-08-12T10:19:46;4.30;;;1.30;;
21833;SDS011;11079;51.092;3.458;2023-08-12T10:22:14;4.65;;;1.45;;
21833;SDS011;11079;51.092;3.458;2023-08-12T10:24:42;6.43;;;1.85;;
21833;SDS011;11079;51.092;3.458;2023-08-12T10:27:11;5.25;;;1.73;;
21833;SDS011;11079;51.092;3.458;2023-08-12T10:29:42;4.45;;;1.70;;
21833;SDS011;11079;51.092;3.458;2023-08-12T10:32:08;3.58;;;1.90;;
21833;SDS011;11079;51.092;3.458;2023-08-12T10:34:36;5.72;;;1.90;;
21833;SDS011;11079;51.092;3.458;2023-08-12T10:37:03;6.28;;;1.70;;
21833;SDS011;11079;51.092;3.458;2023-08-12T10:39:32;5.05;;;1.70;;
21833;SDS011;11079;51.092;3.458;2023-08-12T10:42:01;5.00;;;2.08;;
21833;SDS011;11079;51.092;3.458;2023-08-12T10:44:27;10.07;;;2.00;;
21833;SDS011;11079;51.092;3.458;2023-08-12T10:47:10;5.93;;;1.40;;
21833;SDS011;11079;51.092;3.458;2023-08-12T10:49:42;5.30;;;2.10;;
21833;SDS011;11079;51.092;3.458;2023-08-12T10:52:32;7.97;;;2.15;;
21833;SDS011;11079;51.092;3.458;2023-08-12T10:58:01;5.25;;;1.65;;
21833;SDS011;11079;51.092;3.458;2023-08-12T11:00:34;5.75;;;1.75;;
21833;SDS011;11079;51.092;3.458;2023-08-12T11:03:00;5.22;;;1.83;;
21833;SDS011;11079;51.092;3.458;2023-08-12T11:05:36;6.28;;;1.98;;
21833;SDS011;11079;51.092;3.458;2023-08-12T11:08:04;6.20;;;1.70;;
21833;SDS011;11079;51.092;3.458;2023-08-12T11:10:35;5.95;;;1.85;;
21833;SDS011;11079;51.092;3.458;2023-08-12T11:13:01;6.28;;;1.83;;
21833;SDS011;11079;51.092;3.458;2023-08-12T11:15:30;5.78;;;1.98;;
21833;SDS011;11079;51.092;3.458;2023-08-12T11:18:01;4.53;;;1.40;;
21833;SDS011;11079;51.092;3.458;2023-08-12T11:20:30;4.72;;;1.48;;
21833;SDS011;11079;51.092;3.458;2023-08-12T11:22:57;8.02;;;1.98;;
21833;SDS011;11079;51.092;3.458;2023-08-12T11:25:24;8.10;;;2.03;;
21833;SDS011;11079;51.092;3.458;2023-08-12T11:27:55;6.72;;;1.55;;
21833;SDS011;11079;51.092;3.458;2023-08-12T11:30:22;3.65;;;1.38;;
21833;SDS011;11079;51.092;3.458;2023-08-12T11:32:52;6.28;;;1.98;;
21833;SDS011;11079;51.092;3.458;2023-08-12T11:35:20;7.57;;;1.83;;
21833;SDS011;11079;51.092;3.458;2023-08-12T11:37:49;5.65;;;1.80;;
21833;SDS011;11079;51.092;3.458;2023-08-12T11:40:19;7.68;;;1.40;;
21833;SDS011;11079;51.092;3.458;2023-08-12T11:42:46;5.75;;;1.60;;
21833;SDS011;11079;51.092;3.458;2023-08-12T11:45:12;6.05;;;1.73;;
21833;SDS011;11079;51.092;3.458;2023-08-12T11:47:42;6.15;;;1.88;;
21833;SDS011;11079;51.092;3.458;2023-08-12T11:50:09;4.40;;;2.05;;
21833;SDS011;11079;51.092;3.458;2023-08-12T11:52:37;6.80;;;1.98;;
21833;SDS011;11079;51.092;3.458;2023-08-12T11:55:07;4.75;;;1.40;;
21833;SDS011;11079;51.092;3.458;2023-08-12T11:57:36;8.90;;;1.77;;
21833;SDS011;11079;51.092;3.458;2023-08-12T12:00:07;3.15;;;1.00;;
21833;SDS011;11079;51.092;3.458;2023-08-12T12:02:39;6.82;;;1.63;;
21833;SDS011;11079;51.092;3.458;2023-08-12T12:05:13;4.63;;;1.27;;
21833;SDS011;11079;51.092;3.458;2023-08-12T12:07:41;5.18;;;1.52;;
21833;SDS011;11079;51.092;3.458;2023-08-12T12:10:07;4.35;;;1.88;;
21833;SDS011;11079;51.092;3.458;2023-08-12T12:12:35;5.50;;;1.45;;
21833;SDS011;11079;51.092;3.458;2023-08-12T12:15:02;6.45;;;1.83;;
21833;SDS011;11079;51.092;3.458;2023-08-12T12:17:29;5.57;;;1.80;;
21833;SDS011;11079;51.092;3.458;2023-08-12T12:19:59;9.07;;;2.25;;
21833;SDS011;11079;51.092;3.458;2023-08-12T12:22:26;6.70;;;2.33;;
21833;SDS011;11079;51.092;3.458;2023-08-12T12:24:57;6.45;;;1.65;;
21833;SDS011;11079;51.092;3.458;2023-08-12T12:27:24;4.75;;;1.65;;
21833;SDS011;11079;51.092;3.458;2023-08-12T12:29:51;6.88;;;2.10;;
21833;SDS011;11079;51.092;3.458;2023-08-12T12:32:20;9.68;;;1.92;;
21833;SDS011;11079;51.092;3.458;2023-08-12T12:34:48;6.63;;;1.52;;
21833;SDS011;11079;51.092;3.458;2023-08-12T12:37:15;6.80;;;1.45;;
21833;SDS011;11079;51.092;3.458;2023-08-12T12:39:41;7.93;;;1.70;;
21833;SDS011;11079;51.092;3.458;2023-08-12T12:42:08;8.20;;;1.98;;
21833;SDS011;11079;51.092;3.458;2023-08-12T12:44:34;7.53;;;1.52;;
21833;SDS011;11079;51.092;3.458;2023-08-12T12:47:00;6.10;;;2.03;;
21833;SDS011;11079;51.092;3.458;2023-08-12T12:49:25;7.13;;;1.80;;
21833;SDS011;11079;51.092;3.458;2023-08-12T12:51:53;8.25;;;2.00;;
21833;SDS011;11079;51.092;3.458;2023-08-12T12:54:19;5.07;;;1.95;;
21833;SDS011;11079;51.092;3.458;2023-08-12T12:56:46;7.80;;;2.63;;
21833;SDS011;11079;51.092;3.458;2023-08-12T12:59:12;7.93;;;2.20;;
21833;SDS011;11079;51.092;3.458;2023-08-12T13:01:39;6.47;;;1.88;;
21833;SDS011;11079;51.092;3.458;2023-08-12T13:04:06;7.95;;;1.67;;
21833;SDS011;11079;51.092;3.458;2023-08-12T13:06:33;7.63;;;1.88;;
21833;SDS011;11079;51.092;3.458;2023-08-12T13:09:00;6.13;;;1.83;;
21833;SDS011;11079;51.092;3.458;2023-08-12T13:11:28;8.60;;;1.58;;
21833;SDS011;11079;51.092;3.458;2023-08-12T13:13:54;4.70;;;1.83;;
21833;SDS011;11079;51.092;3.458;2023-08-12T13:16:20;6.25;;;2.03;;
21833;SDS011;11079;51.092;3.458;2023-08-12T13:18:46;6.20;;;1.67;;
21833;SDS011;11079;51.092;3.458;2023-08-12T13:21:11;5.88;;;1.88;;
21833;SDS011;11079;51.092;3.458;2023-08-12T13:23:38;6.45;;;1.67;;
21833;SDS011;11079;51.092;3.458;2023-08-12T13:26:04;6.18;;;1.75;;
21833;SDS011;11079;51.092;3.458;2023-08-12T13:28:33;5.10;;;1.40;;
21833;SDS011;11079;51.092;3.458;2023-08-12T13:31:20;4.60;;;1.50;;
21833;SDS011;11079;51.092;3.458;2023-08-12T13:33:54;5.57;;;1.80;;
21833;SDS011;11079;51.092;3.458;2023-08-12T13:36:19;8.70;;;1.73;;
21833;SDS011;11079;51.092;3.458;2023-08-12T13:39:11;5.20;;;1.70;;
21833;SDS011;11079;51.092;3.458;2023-08-12T13:41:38;3.83;;;1.73;;
21833;SDS011;11079;51.092;3.458;2023-08-12T13:44:04;6.38;;;1.98;;
21833;SDS011;11079;51.092;3.458;2023-08-12T13:46:29;4.43;;;1.33;;
21833;SDS011;11079;51.092;3.458;2023-08-12T13:48:59;4.55;;;1.58;;
21833;SDS011;11079;51.092;3.458;2023-08-12T13:51:25;4.35;;;1.50;;
21833;SDS011;11079;51.092;3.458;2023-08-12T13:53:51;6.75;;;1.80;;
21833;SDS011;11079;51.092;3.458;2023-08-12T13:56:19;3.83;;;1.58;;
21833;SDS011;11079;51.092;3.458;2023-08-12T13:58:48;7.20;;;1.60;;
21833;SDS011;11079;51.092;3.458;2023-08-12T14:01:17;6.85;;;1.92;;
21833;SDS011;11079;51.092;3.458;2023-08-12T14:03:47;4.65;;;1.55;;
21833;SDS011;11079;51.092;3.458;2023-08-12T14:06:13;5.00;;;1.65;;
21833;SDS011;11079;51.092;3.458;2023-08-12T14:08:42;7.60;;;2.00;;
21833;SDS011;11079;51.092;3.458;2023-08-12T14:11:07;6.15;;;1.45;;
21833;SDS011;11079;51.092;3.458;2023-08-12T14:13:33;6.57;;;1.60;;
21833;SDS011;11079;51.092;3.458;2023-08-12T14:15:59;5.22;;;1.42;;
21833;SDS011;11079;51.092;3.458;2023-08-12T14:18:24;4.88;;;1.42;;
21833;SDS011;11079;51.092;3.458;2023-08-12T14:20:50;5.25;;;1.48;;
21833;SDS011;11079;51.092;3.458;2023-08-12T14:23:16;4.78;;;1.38;;
21833;SDS011;11079;51.092;3.458;2023-08-12T14:25:41;5.72;;;1.75;;
21833;SDS011;11079;51.092;3.458;2023-08-12T14:28:07;7.07;;;1.50;;
21833;SDS011;11079;51.092;3.458;2023-08-12T14:30:33;6.28;;;1.83;;
21833;SDS011;11079;51.092;3.458;2023-08-12T14:32:58;4.15;;;1.40;;
21833;SDS011;11079;51.092;3.458;2023-08-12T14:35:24;4.38;;;1.80;;
21833;SDS011;11079;51.092;3.458;2023-08-12T14:37:50;5.28;;;1.90;;
21833;SDS011;11079;51.092;3.458;2023-08-12T14:40:16;5.32;;;1.70;;
21833;SDS011;11079;51.092;3.458;2023-08-12T14:42:41;4.55;;;1.60;;
21833;SDS011;11079;51.092;3.458;2023-08-12T14:45:07;8.13;;;1.85;;
21833;SDS011;11079;51.092;3.458;2023-08-12T14:47:34;7.78;;;1.80;;
21833;SDS011;11079;51.092;3.458;2023-08-12T14:49:59;4.43;;;1.30;;
21833;SDS011;11079;51.092;3.458;2023-08-12T14:52:26;2.72;;;1.15;;
21833;SDS011;11079;51.092;3.458;2023-08-12T14:54:51;6.72;;;1.20;;
21833;SDS011;11079;51.092;3.458;2023-08-12T14:57:17;5.32;;;1.50;;
21833;SDS011;11079;51.092;3.458;2023-08-12T14:59:43;5.75;;;1.23;;
21833;SDS011;11079;51.092;3.458;2023-08-12T15:02:08;5.78;;;1.92;;
21833;SDS011;11079;51.092;3.458;2023-08-12T15:04:34;4.95;;;1.90;;
21833;SDS011;11079;51.092;3.458;2023-08-12T15:07:00;7.38;;;2.03;;
21833;SDS011;11079;51.092;3.458;2023-08-12T15:09:29;4.78;;;1.52;;
21833;SDS011;11079;51.092;3.458;2023-08-12T15:11:56;8.10;;;1.60;;
21833;SDS011;11079;51.092;3.458;2023-08-12T15:14:21;6.50;;;1.88;;
21833;SDS011;11079;51.092;3.458;2023-08-12T15:16:47;6.38;;;1.40;;
21833;SDS011;11079;51.092;3.458;2023-08-12T15:19:13;6.57;;;1.75;;
21833;SDS011;11079;51.092;3.458;2023-08-12T15:21:39;7.60;;;1.70;;
21833;SDS011;11079;51.092;3.458;2023-08-12T15:24:04;7.38;;;2.22;;
21833;SDS011;11079;51.092;3.458;2023-08-12T15:26:31;5.78;;;1.50;;
21833;SDS011;11079;51.092;3.458;2023-08-12T15:28:57;6.18;;;1.75;;
21833;SDS011;11079;51.092;3.458;2023-08-12T15:31:55;8.48;;;1.63;;
21833;SDS011;11079;51.092;3.458;2023-08-12T15:34:22;7.60;;;2.40;;
21833;SDS011;11079;51.092;3.458;2023-08-12T15:36:49;6.25;;;1.60;;
21833;SDS011;11079;51.092;3.458;2023-08-12T15:39:17;6.78;;;1.67;;
21833;SDS011;11079;51.092;3.458;2023-08-12T15:41:43;6.60;;;1.83;;
21833;SDS011;11079;51.092;3.458;2023-08-12T15:44:10;5.20;;;1.50;;
21833;SDS011;11079;51.092;3.458;2023-08-12T15:46:41;4.43;;;1.15;;
21833;SDS011;11079;51.092;3.458;2023-08-12T15:49:07;4.75;;;1.48;;
21833;SDS011;11079;51.092;3.458;2023-08-12T15:51:39;6.03;;;2.10;;
21833;SDS011;11079;51.092;3.458;2023-08-12T15:54:06;4.60;;;2.17;;
21833;SDS011;11079;51.092;3.458;2023-08-12T15:56:32;5.93;;;1.58;;
21833;SDS011;11079;51.092;3.458;2023-08-12T15:59:01;7.55;;;1.35;;
21833;SDS011;11079;51.092;3.458;2023-08-12T16:01:28;7.35;;;1.98;;
21833;SDS011;11079;51.092;3.458;2023-08-12T16:03:55;6.35;;;1.60;;
21833;SDS011;11079;51.092;3.458;2023-08-12T16:06:22;3.95;;;1.33;;
21833;SDS011;11079;51.092;3.458;2023-08-12T16:08:50;5.93;;;1.60;;
21833;SDS011;11079;51.092;3.458;2023-08-12T16:11:18;6.18;;;1.60;;
21833;SDS011;11079;51.092;3.458;2023-08-12T16:13:46;4.68;;;1.88;;
21833;SDS011;11079;51.092;3.458;2023-08-12T16:16:14;4.50;;;1.50;;
21833;SDS011;11079;51.092;3.458;2023-08-12T16:18:42;3.58;;;1.30;;
21833;SDS011;11079;51.092;3.458;2023-08-12T16:21:07;5.43;;;1.20;;
21833;SDS011;11079;51.092;3.458;2023-08-12T16:23:33;5.75;;;1.65;;
21833;SDS011;11079;51.092;3.458;2023-08-12T16:26:05;8.55;;;2.13;;
21833;SDS011;11079;51.092;3.458;2023-08-12T16:28:38;9.20;;;1.90;;
21833;SDS011;11079;51.092;3.458;2023-08-12T16:31:30;5.55;;;1.65;;
21833;SDS011;11079;51.092;3.458;2023-08-12T16:34:02;7.28;;;1.92;;
21833;SDS011;11079;51.092;3.458;2023-08-12T16:36:28;10.00;;;2.15;;
21833;SDS011;11079;51.092;3.458;2023-08-12T16:38:59;6.82;;;2.03;;
21833;SDS011;11079;51.092;3.458;2023-08-12T16:41:35;5.85;;;1.77;;
21833;SDS011;11079;51.092;3.458;2023-08-12T16:44:05;6.45;;;1.75;;
21833;SDS011;11079;51.092;3.458;2023-08-12T16:46:39;6.22;;;1.83;;
21833;SDS011;11079;51.092;3.458;2023-08-12T16:49:04;9.52;;;1.83;;
21833;SDS011;11079;51.092;3.458;2023-08-12T16:51:31;7.68;;;1.55;;
21833;SDS011;11079;51.092;3.458;2023-08-12T16:53:58;7.28;;;1.92;;
21833;SDS011;11079;51.092;3.458;2023-08-12T16:56:24;7.65;;;1.80;;
21833;SDS011;11079;51.092;3.458;2023-08-12T16:58:55;6.97;;;1.90;;
21833;SDS011;11079;51.092;3.458;2023-08-12T17:01:20;7.30;;;1.80;;
21833;SDS011;11079;51.092;3.458;2023-08-12T17:03:46;8.48;;;2.00;;
21833;SDS011;11079;51.092;3.458;2023-08-12T17:06:14;6.90;;;1.90;;
21833;SDS011;11079;51.092;3.458;2023-08-12T17:11:37;8.70;;;2.60;;
21833;SDS011;11079;51.092;3.458;2023-08-12T17:14:03;10.63;;;2.55;;
21833;SDS011;11079;51.092;3.458;2023-08-12T17:16:34;5.38;;;1.50;;
21833;SDS011;11079;51.092;3.458;2023-08-12T17:19:08;5.43;;;1.33;;
21833;SDS011;11079;51.092;3.458;2023-08-12T17:21:39;8.30;;;1.77;;
21833;SDS011;11079;51.092;3.458;2023-08-12T17:24:05;8.25;;;2.00;;
21833;SDS011;11079;51.092;3.458;2023-08-12T17:26:31;6.75;;;2.05;;
21833;SDS011;11079;51.092;3.458;2023-08-12T17:29:17;12.20;;;1.90;;
21833;SDS011;11079;51.092;3.458;2023-08-12T17:32:00;9.80;;;1.90;;
21833;SDS011;11079;51.092;3.458;2023-08-12T17:35:16;6.00;;;1.75;;
21833;SDS011;11079;51.092;3.458;2023-08-12T17:41:10;9.90;;;2.67;;
21833;SDS011;11079;51.092;3.458;2023-08-12T18:03:26;7.45;;;1.70;;
21833;SDS011;11079;51.092;3.458;2023-08-12T18:06:01;6.13;;;1.70;;
21833;SDS011;11079;51.092;3.458;2023-08-12T18:09:14;6.70;;;1.98;;
21833;SDS011;11079;51.092;3.458;2023-08-12T18:15:30;6.75;;;2.00;;
21833;SDS011;11079;51.092;3.458;2023-08-12T18:17:58;7.43;;;2.35;;
21833;SDS011;11079;51.092;3.458;2023-08-12T18:20:42;6.18;;;1.70;;
21833;SDS011;11079;51.092;3.458;2023-08-12T18:23:28;8.73;;;1.88;;
21833;SDS011;11079;51.092;3.458;2023-08-12T18:25:55;11.68;;;1.77;;
21833;SDS011;11079;51.092;3.458;2023-08-12T18:28:39;5.40;;;1.85;;
21833;SDS011;11079;51.092;3.458;2023-08-12T18:31:29;8.98;;;2.15;;
21833;SDS011;11079;51.092;3.458;2023-08-12T18:34:09;8.52;;;1.90;;
21833;SDS011;11079;51.092;3.458;2023-08-12T18:36:36;12.40;;;2.33;;
21833;SDS011;11079;51.092;3.458;2023-08-12T18:39:04;9.10;;;2.20;;
21833;SDS011;11079;51.092;3.458;2023-08-12T18:41:41;6.25;;;2.22;;
21833;SDS011;11079;51.092;3.458;2023-08-12T18:44:32;10.05;;;2.20;;
21833;SDS011;11079;51.092;3.458;2023-08-12T18:47:00;7.20;;;2.55;;
21833;SDS011;11079;51.092;3.458;2023-08-12T18:49:37;8.15;;;1.70;;
21833;SDS011;11079;51.092;3.458;2023-08-12T18:52:12;8.07;;;2.15;;
21833;SDS011;11079;51.092;3.458;2023-08-12T18:54:39;8.77;;;2.08;;
21833;SDS011;11079;51.092;3.458;2023-08-12T18:57:20;9.23;;;1.67;;
21833;SDS011;11079;51.092;3.458;2023-08-12T18:59:48;9.10;;;2.47;;
21833;SDS011;11079;51.092;3.458;2023-08-12T19:02:17;9.90;;;2.67;;
21833;SDS011;11079;51.092;3.458;2023-08-12T19:04:47;10.38;;;2.03;;
21833;SDS011;11079;51.092;3.458;2023-08-12T19:07:17;9.32;;;2.17;;
21833;SDS011;11079;51.092;3.458;2023-08-12T19:09:43;8.82;;;2.05;;
21833;SDS011;11079;51.092;3.458;2023-08-12T19:12:09;12.45;;;2.45;;
21833;SDS011;11079;51.092;3.458;2023-08-12T19:14:40;10.68;;;2.05;;
21833;SDS011;11079;51.092;3.458;2023-08-12T19:17:10;7.15;;;1.90;;
21833;SDS011;11079;51.092;3.458;2023-08-12T19:19:36;7.63;;;2.25;;
21833;SDS011;11079;51.092;3.458;2023-08-12T19:22:08;11.13;;;2.58;;
21833;SDS011;11079;51.092;3.458;2023-08-12T19:24:52;9.15;;;2.47;;
21833;SDS011;11079;51.092;3.458;2023-08-12T19:27:20;12.27;;;2.47;;
21833;SDS011;11079;51.092;3.458;2023-08-12T19:29:49;8.13;;;2.03;;
21833;SDS011;11079;51.092;3.458;2023-08-12T19:32:19;7.07;;;1.60;;
21833;SDS011;11079;51.092;3.458;2023-08-12T19:34:50;13.88;;;2.55;;
21833;SDS011;11079;51.092;3.458;2023-08-12T19:37:25;13.02;;;2.88;;
21833;SDS011;11079;51.092;3.458;2023-08-12T19:40:06;10.52;;;2.10;;
21833;SDS011;11079;51.092;3.458;2023-08-12T19:46:36;7.40;;;2.40;;
21833;SDS011;11079;51.092;3.458;2023-08-12T19:49:19;7.82;;;2.20;;
21833;SDS011;11079;51.092;3.458;2023-08-12T19:51:47;12.73;;;2.78;;
21833;SDS011;11079;51.092;3.458;2023-08-12T19:54:14;10.43;;;2.65;;
21833;SDS011;11079;51.092;3.458;2023-08-12T19:56:44;11.80;;;2.35;;
21833;SDS011;11079;51.092;3.458;2023-08-12T19:59:10;9.63;;;2.35;;
21833;SDS011;11079;51.092;3.458;2023-08-12T20:01:40;10.00;;;2.40;;
21833;SDS011;11079;51.092;3.458;2023-08-12T20:07:19;9.23;;;2.75;;
21833;SDS011;11079;51.092;3.458;2023-08-12T20:09:46;11.15;;;2.72;;
21833;SDS011;11079;51.092;3.458;2023-08-12T20:12:12;9.95;;;2.63;;
21833;SDS011;11079;51.092;3.458;2023-08-12T20:14:38;11.13;;;3.17;;
21833;SDS011;11079;51.092;3.458;2023-08-12T20:17:04;10.88;;;2.75;;
21833;SDS011;11079;51.092;3.458;2023-08-12T20:19:30;14.65;;;4.18;;